Terminal Aerodrome Forecast
Issued by NWS

Current Version | Previous Version | Text Only | Print | Product List | Glossary Off
Versions: 1 2 3 4 5 6 7 8 9 10 11 12

000
FTUS42 KILM 221100
TAFCRE
TAF
KCRE 221131Z 2212/2312 33006KT P6SM SKC
     FM221300 32011G18KT P6SM SKC
     FM222300 34007KT P6SM SKC=

USA.gov is the U.S. government's official web portal to all federal, state and local government web resources and services.